createdAt,value
2022-10-11T00:02:17.133Z,3.77
2022-10-11T00:04:43.774Z,3.90
2022-10-11T00:07:11.043Z,4.11
2022-10-11T00:09:37.891Z,3.79
2022-10-11T00:12:04.779Z,3.66
2022-10-11T00:14:32.235Z,3.83
2022-10-11T00:16:59.051Z,3.85
2022-10-11T00:19:25.753Z,3.62
2022-10-11T00:21:52.325Z,3.91
2022-10-11T00:24:19.321Z,3.80
2022-10-11T00:26:47.095Z,3.78
2022-10-11T00:29:14.213Z,4.01
2022-10-11T00:31:41.126Z,3.81
2022-10-11T00:34:08.480Z,3.78
2022-10-11T00:36:35.146Z,4.03
2022-10-11T00:41:32.282Z,3.70
2022-10-11T00:44:02.652Z,3.83
2022-10-11T00:46:29.218Z,3.81
2022-10-11T00:48:56.579Z,3.75
2022-10-11T00:51:23.083Z,4.08
2022-10-11T00:53:50.977Z,4.10
2022-10-11T00:56:17.929Z,4.01
2022-10-11T00:58:44.547Z,3.65
2022-10-11T01:01:11.450Z,3.35
2022-10-11T01:03:38.254Z,3.62
2022-10-11T01:06:05.471Z,3.73
2022-10-11T01:08:32.445Z,3.56
2022-10-11T01:10:59.343Z,3.58
2022-10-11T01:13:26.033Z,3.45
2022-10-11T01:15:53.465Z,3.83
2022-10-11T01:18:20.904Z,3.61
2022-10-11T01:20:47.696Z,3.65
2022-10-11T01:23:14.628Z,3.67
2022-10-11T01:25:41.570Z,3.87
2022-10-11T01:28:08.349Z,3.74
2022-10-11T01:30:35.021Z,3.45
2022-10-11T01:33:02.455Z,3.67
2022-10-11T01:35:29.645Z,3.46
2022-10-11T01:37:57.019Z,3.50
2022-10-11T01:40:23.786Z,3.52
2022-10-11T01:42:54.040Z,3.65
2022-10-11T01:45:27.036Z,3.92
2022-10-11T01:47:55.157Z,3.77
2022-10-11T01:50:25.223Z,3.75
2022-10-11T01:52:53.541Z,3.57
2022-10-11T01:55:20.545Z,3.34
2022-10-11T01:57:47.750Z,3.75
2022-10-11T02:03:24.696Z,3.53
2022-10-11T02:05:51.600Z,3.45
2022-10-11T02:08:20.013Z,3.75
2022-10-11T02:10:46.523Z,3.60
2022-10-11T02:13:13.529Z,3.16
2022-10-11T02:15:40.219Z,3.30
2022-10-11T02:18:07.386Z,3.28
2022-10-11T02:20:34.961Z,3.37
2022-10-11T02:23:01.715Z,3.51
2022-10-11T02:25:28.606Z,3.35
2022-10-11T02:27:55.387Z,3.42
2022-10-11T02:30:22.416Z,3.50
2022-10-11T02:32:49.333Z,3.33
2022-10-11T02:35:16.552Z,3.21
2022-10-11T02:37:43.398Z,3.13
2022-10-11T02:40:10.476Z,3.18
2022-10-11T02:42:37.500Z,3.00
2022-10-11T02:45:05.274Z,3.04
2022-10-11T02:47:32.358Z,2.88
2022-10-11T02:49:59.193Z,3.06
2022-10-11T02:52:27.614Z,2.99
2022-10-11T02:54:54.310Z,2.90
2022-10-11T02:57:21.035Z,3.00
2022-10-11T02:59:48.677Z,2.80
2022-10-11T03:02:15.269Z,2.82
2022-10-11T03:04:42.142Z,2.91
2022-10-11T03:07:10.298Z,2.75
2022-10-11T03:09:37.347Z,2.86
2022-10-11T03:12:06.152Z,2.53
2022-10-11T03:14:33.801Z,2.74
2022-10-11T03:17:17.213Z,2.76
2022-10-11T03:19:48.389Z,2.98
2022-10-11T03:22:15.189Z,2.94
2022-10-11T03:24:43.014Z,3.16
2022-10-11T03:27:10.261Z,2.86
2022-10-11T03:29:39.413Z,2.96
2022-10-11T03:32:06.176Z,2.75
2022-10-11T03:34:32.833Z,2.81
2022-10-11T03:36:59.746Z,2.78
2022-10-11T03:39:26.290Z,2.74
2022-10-11T03:41:54.742Z,2.89
2022-10-11T03:44:21.271Z,2.69
2022-10-11T03:46:52.465Z,2.78
2022-10-11T03:49:21.035Z,2.88
2022-10-11T03:51:48.352Z,2.73
2022-10-11T03:54:16.271Z,3.16
2022-10-11T03:56:43.097Z,2.93
2022-10-11T03:59:09.767Z,2.94
2022-10-11T04:01:38.068Z,2.93
2022-10-11T04:04:05.052Z,3.04
2022-10-11T04:06:33.966Z,3.11
2022-10-11T04:09:01.439Z,3.08
2022-10-11T04:11:29.126Z,3.08
2022-10-11T04:13:55.646Z,3.06
2022-10-11T04:16:22.245Z,3.37
2022-10-11T04:18:49.183Z,3.19
2022-10-11T04:21:16.164Z,3.37
2022-10-11T04:23:42.984Z,3.66
2022-10-11T04:26:10.054Z,3.42
2022-10-11T04:28:37.804Z,3.38
2022-10-11T04:31:08.334Z,3.38
2022-10-11T04:33:35.077Z,3.39
2022-10-11T04:36:03.998Z,3.41
2022-10-11T04:38:31.082Z,3.41
2022-10-11T04:40:57.671Z,3.30
2022-10-11T04:43:24.286Z,3.26
2022-10-11T04:45:55.505Z,3.88
2022-10-11T04:48:26.286Z,3.94
2022-10-11T04:50:52.971Z,3.84
2022-10-11T04:53:20.673Z,3.73
2022-10-11T04:55:47.310Z,3.94
2022-10-11T04:58:14.448Z,4.31
2022-10-11T05:00:42.149Z,4.11
2022-10-11T05:03:09.694Z,3.58
2022-10-11T05:05:39.393Z,3.84
2022-10-11T05:08:06.167Z,4.12
2022-10-11T05:10:33.762Z,3.77
2022-10-11T05:13:01.634Z,3.89
2022-10-11T05:15:30.009Z,3.92
2022-10-11T05:18:03.757Z,3.71
2022-10-11T05:20:31.734Z,4.11
2022-10-11T05:22:59.240Z,4.15
2022-10-11T05:25:28.564Z,3.91
2022-10-11T05:27:56.248Z,3.99
2022-10-11T05:30:23.044Z,3.98
2022-10-11T05:32:57.325Z,3.98
2022-10-11T05:35:24.016Z,3.52
2022-10-11T05:37:52.035Z,3.92
2022-10-11T05:40:20.987Z,3.59
2022-10-11T05:42:47.497Z,3.85
2022-10-11T05:45:15.004Z,3.80
2022-10-11T05:47:42.085Z,4.95
2022-10-11T05:50:11.180Z,4.80
2022-10-11T05:52:37.689Z,4.50
2022-10-11T05:55:04.971Z,4.75
2022-10-11T05:57:31.786Z,4.64
2022-10-11T05:59:58.480Z,4.40
2022-10-11T06:02:25.257Z,4.11
2022-10-11T06:04:52.277Z,4.06
2022-10-11T06:07:18.960Z,4.22
2022-10-11T06:09:46.229Z,4.31
2022-10-11T06:12:12.812Z,4.16
2022-10-11T06:14:40.865Z,3.95
2022-10-11T06:17:07.661Z,3.85
2022-10-11T06:19:35.127Z,4.02
2022-10-11T06:22:02.556Z,3.82
2022-10-11T06:24:33.958Z,4.03
2022-10-11T06:27:02.323Z,3.97
2022-10-11T06:29:28.761Z,3.83
2022-10-11T06:31:57.336Z,3.95
2022-10-11T06:34:24.135Z,3.77
2022-10-11T06:36:50.901Z,4.30
2022-10-11T06:39:17.499Z,3.82
2022-10-11T06:41:44.338Z,4.08
2022-10-11T06:44:14.132Z,3.92
2022-10-11T06:46:41.659Z,3.55
2022-10-11T06:49:10.469Z,3.59
2022-10-11T06:51:36.922Z,3.36
2022-10-11T06:54:03.740Z,3.61
2022-10-11T06:56:31.035Z,3.76
2022-10-11T06:58:58.437Z,4.69
2022-10-11T07:01:27.893Z,4.17
2022-10-11T07:03:55.335Z,3.91
2022-10-11T07:06:22.117Z,3.90
2022-10-11T07:08:50.829Z,3.90
2022-10-11T07:11:18.503Z,4.07
2022-10-11T07:13:45.785Z,4.16
2022-10-11T07:16:17.314Z,3.61
2022-10-11T07:18:46.177Z,3.39
2022-10-11T07:21:13.141Z,3.53
2022-10-11T07:23:40.439Z,3.68
2022-10-11T07:26:09.662Z,3.95
2022-10-11T07:28:37.598Z,3.76
2022-10-11T07:31:04.271Z,3.88
2022-10-11T07:33:30.958Z,4.23
2022-10-11T07:35:58.365Z,4.01
2022-10-11T07:38:29.172Z,4.39
2022-10-11T07:40:57.748Z,4.65
2022-10-11T07:43:26.722Z,4.47
2022-10-11T07:45:53.787Z,4.37
2022-10-11T07:48:21.200Z,4.26
2022-10-11T07:50:48.495Z,4.62
2022-10-11T07:53:15.257Z,4.73
2022-10-11T07:55:43.088Z,4.56
2022-10-11T07:58:09.977Z,4.37
2022-10-11T08:00:40.898Z,4.21
2022-10-11T08:03:10.119Z,4.48
2022-10-11T08:05:38.568Z,4.75
2022-10-11T08:08:05.279Z,4.69
2022-10-11T08:10:31.825Z,4.11
2022-10-11T08:13:03.394Z,3.84
2022-10-11T08:15:31.684Z,4.23
2022-10-11T08:17:58.613Z,4.20
2022-10-11T08:20:25.946Z,4.34
2022-10-11T08:22:53.286Z,3.93
2022-10-11T08:25:28.092Z,4.00
2022-10-11T08:27:58.229Z,4.60
2022-10-11T08:30:26.457Z,4.65
2022-10-11T08:32:54.265Z,4.53
2022-10-11T08:35:21.477Z,4.32
2022-10-11T08:37:48.388Z,4.49
2022-10-11T08:40:15.206Z,4.40
2022-10-11T08:42:42.094Z,4.05
2022-10-11T08:47:50.458Z,4.72
2022-10-11T08:50:17.766Z,4.50
2022-10-11T08:52:44.914Z,4.43
2022-10-11T08:55:12.657Z,4.43
2022-10-11T09:03:45.474Z,5.12
2022-10-11T09:06:17.260Z,4.75
2022-10-11T09:08:44.096Z,4.36
2022-10-11T09:11:25.241Z,4.23
2022-10-11T09:16:42.187Z,4.45
2022-10-11T09:19:11.168Z,4.62
2022-10-11T09:21:41.229Z,4.95
2022-10-11T09:24:09.619Z,4.74
2022-10-11T09:26:38.375Z,4.60
2022-10-11T09:29:05.418Z,4.87
2022-10-11T09:31:32.272Z,5.33
2022-10-11T09:33:59.714Z,5.27
2022-10-11T09:36:26.585Z,5.02
2022-10-11T09:38:53.234Z,5.45
2022-10-11T09:41:21.628Z,6.10
2022-10-11T09:43:48.405Z,6.32
2022-10-11T09:46:15.820Z,5.90
2022-10-11T09:48:42.788Z,5.69
2022-10-11T09:51:12.434Z,6.09
2022-10-11T09:53:39.580Z,6.24
2022-10-11T09:56:07.856Z,6.06
2022-10-11T09:58:35.097Z,6.43
2022-10-11T10:01:07.664Z,6.95
2022-10-11T10:03:35.945Z,6.87
2022-10-11T10:06:02.853Z,6.76
2022-10-11T10:08:29.983Z,6.22
2022-10-11T10:10:59.416Z,7.06
2022-10-11T10:13:26.724Z,6.75
2022-10-11T10:15:55.713Z,6.38
2022-10-11T10:18:24.723Z,6.57
2022-10-11T10:20:52.564Z,6.96
2022-10-11T10:23:20.896Z,7.24
2022-10-11T10:25:47.580Z,7.25
2022-10-11T10:28:18.587Z,6.99
2022-10-11T10:30:45.835Z,7.61
2022-10-11T10:33:13.378Z,6.88
2022-10-11T10:35:41.171Z,6.95
2022-10-11T10:38:10.517Z,6.85
2022-10-11T10:40:37.065Z,7.01
2022-10-11T10:43:05.021Z,7.29
2022-10-11T10:45:39.064Z,7.14
2022-10-11T10:48:06.779Z,7.06
2022-10-11T10:50:33.909Z,6.77
2022-10-11T10:53:03.017Z,7.07
2022-10-11T10:55:30.841Z,7.80
2022-10-11T10:58:00.354Z,7.92
2022-10-11T11:00:27.194Z,7.59
2022-10-11T11:02:59.384Z,7.68
2022-10-11T11:05:27.115Z,7.48
2022-10-11T11:07:54.033Z,7.53
2022-10-11T11:10:20.784Z,7.93
2022-10-11T11:12:50.082Z,7.76
2022-10-11T11:15:19.604Z,7.82
2022-10-11T11:17:47.287Z,7.93
2022-10-11T11:23:27.760Z,8.14
2022-10-11T11:25:54.461Z,8.89
2022-10-11T11:28:21.423Z,8.87
2022-10-11T11:30:52.345Z,10.37
2022-10-11T11:33:19.101Z,10.61
2022-10-11T11:35:47.815Z,9.79
2022-10-11T11:38:14.582Z,9.73
2022-10-11T11:40:43.602Z,10.80
2022-10-11T11:45:51.710Z,9.12
2022-10-11T11:48:18.607Z,8.49
2022-10-11T11:50:45.825Z,10.48
2022-10-11T11:53:14.131Z,9.90
2022-10-11T11:55:42.864Z,9.26
2022-10-11T11:58:13.159Z,9.25
2022-10-11T12:00:41.973Z,9.67
2022-10-11T12:03:13.382Z,9.27
2022-10-11T12:05:43.184Z,10.19
2022-10-11T12:08:13.757Z,10.28
2022-10-11T12:10:40.704Z,11.37
2022-10-11T12:19:23.722Z,10.96
2022-10-11T12:21:53.376Z,10.45
2022-10-11T12:24:23.340Z,10.14
2022-10-11T12:26:54.130Z,14.07
2022-10-11T12:29:27.482Z,10.29
2022-10-11T12:31:59.091Z,9.68
2022-10-11T12:34:25.598Z,182.13
2022-10-11T12:36:52.136Z,673.93
2022-10-11T12:39:18.731Z,425.14
2022-10-11T12:41:45.472Z,350.10
2022-10-11T12:44:11.913Z,274.21
2022-10-11T12:46:38.625Z,199.40
2022-10-11T12:49:05.177Z,404.38
2022-10-11T12:51:32.057Z,173.18
2022-10-11T12:54:25.359Z,659.75
2022-10-11T13:06:14.182Z,12.75
2022-10-11T13:08:41.102Z,13.23
2022-10-11T13:11:09.041Z,12.92
2022-10-11T13:13:38.889Z,12.97
2022-10-11T13:16:06.360Z,13.16
2022-10-11T13:18:36.760Z,12.84
2022-10-11T13:21:03.390Z,12.48
2022-10-11T13:23:31.209Z,13.08
2022-10-11T13:25:57.970Z,13.46
2022-10-11T13:28:25.232Z,13.88
2022-10-11T13:30:52.104Z,14.19
2022-10-11T13:33:19.814Z,14.36
2022-10-11T13:35:48.640Z,13.93
2022-10-11T13:38:17.514Z,14.37
2022-10-11T13:40:50.058Z,14.39
2022-10-11T13:43:19.532Z,13.44
2022-10-11T13:45:46.938Z,13.63
2022-10-11T13:48:15.859Z,13.75
2022-10-11T13:50:42.807Z,15.61
2022-10-11T13:53:10.468Z,13.90
2022-10-11T13:55:36.965Z,13.93
2022-10-11T13:58:08.547Z,14.14
2022-10-11T14:00:35.678Z,13.33
2022-10-11T14:03:04.269Z,13.73
2022-10-11T14:05:32.605Z,14.10
2022-10-11T14:08:00.864Z,13.52
2022-10-11T14:10:29.435Z,13.71
2022-10-11T14:12:56.971Z,13.70
2022-10-11T14:15:24.072Z,12.95
2022-10-11T14:17:50.799Z,13.26
2022-10-11T14:20:18.355Z,13.96
2022-10-11T14:22:47.880Z,13.41
2022-10-11T14:25:14.772Z,13.27
2022-10-11T14:27:43.627Z,13.10
2022-10-11T14:30:25.229Z,12.87
2022-10-11T14:33:00.496Z,13.28
2022-10-11T14:35:27.682Z,13.46
2022-10-11T14:37:54.407Z,48.91
2022-10-11T14:40:24.255Z,56.04
2022-10-11T14:42:51.006Z,63.72
2022-10-11T14:45:17.731Z,48.09
2022-10-11T14:47:44.277Z,13.38
2022-10-11T14:50:11.163Z,13.17
2022-10-11T14:52:38.172Z,12.31
2022-10-11T14:55:06.835Z,11.60
2022-10-11T14:57:40.980Z,10.98
2022-10-11T15:00:09.362Z,10.33
2022-10-11T15:02:47.479Z,9.82
2022-10-11T15:05:14.457Z,10.23
2022-10-11T15:07:44.353Z,10.15
2022-10-11T15:10:15.233Z,9.15
2022-10-11T15:12:46.608Z,9.31
2022-10-11T15:15:18.975Z,10.31
2022-10-11T15:17:48.085Z,9.73
2022-10-11T15:20:22.159Z,10.62
2022-10-11T15:22:49.055Z,11.03
2022-10-11T15:25:18.913Z,10.87
2022-10-11T15:27:45.461Z,11.46
2022-10-11T15:30:13.341Z,11.61
2022-10-11T15:32:52.412Z,11.31
2022-10-11T15:35:19.839Z,11.66
2022-10-11T15:37:46.805Z,11.29
2022-10-11T15:40:14.250Z,11.85
2022-10-11T15:42:40.916Z,12.09
2022-10-11T15:45:07.431Z,12.44
2022-10-11T15:47:34.291Z,11.77
2022-10-11T15:53:12.200Z,8.63
2022-10-11T15:55:41.704Z,9.03
2022-10-11T15:58:08.334Z,8.95
2022-10-11T16:00:35.944Z,10.18
2022-10-11T16:03:03.262Z,11.68
2022-10-11T16:05:32.896Z,12.49
2022-10-11T16:07:59.811Z,11.78
2022-10-11T16:10:26.439Z,10.90
2022-10-11T16:12:53.873Z,11.21
2022-10-11T16:15:20.629Z,10.79
2022-10-11T16:17:47.606Z,10.17
2022-10-11T16:20:16.055Z,9.41
2022-10-11T16:22:42.938Z,9.29
2022-10-11T16:25:10.262Z,9.77
2022-10-11T16:27:36.938Z,9.36
2022-10-11T16:30:03.672Z,9.83
2022-10-11T16:32:33.034Z,10.17
2022-10-11T16:35:01.029Z,9.83
2022-10-11T16:37:32.129Z,10.36
2022-10-11T16:39:59.181Z,10.32
2022-10-11T16:42:27.236Z,11.68
2022-10-11T16:47:44.078Z,11.04
2022-10-11T16:50:12.251Z,10.30
2022-10-11T16:52:38.910Z,10.49
2022-10-11T16:55:05.562Z,10.87
2022-10-11T16:57:32.368Z,10.95
2022-10-11T16:59:59.740Z,10.76
2022-10-11T17:02:32.342Z,11.33
2022-10-11T17:04:59.334Z,14.44
2022-10-11T17:07:26.736Z,10.74
2022-10-11T17:09:53.617Z,7.70
2022-10-11T17:12:21.027Z,7.18
2022-10-11T17:14:48.203Z,6.92
2022-10-11T17:17:14.967Z,6.30
2022-10-11T17:19:45.568Z,7.35
2022-10-11T17:22:12.480Z,7.19
2022-10-11T17:24:49.800Z,7.54
2022-10-11T17:27:16.695Z,7.06
2022-10-11T17:29:43.653Z,7.21
2022-10-11T17:32:10.456Z,6.85
2022-10-11T17:34:37.274Z,6.89
2022-10-11T17:37:04.186Z,7.20
2022-10-11T17:39:32.694Z,6.82
2022-10-11T17:42:06.649Z,6.58
2022-10-11T17:44:33.961Z,7.18
2022-10-11T17:56:51.503Z,8.69
2022-10-11T18:21:34.042Z,8.87
2022-10-11T18:24:01.730Z,9.11
2022-10-11T18:26:30.946Z,9.89
2022-10-11T18:28:57.697Z,14.59
2022-10-11T18:31:24.317Z,19.28
2022-10-11T18:33:50.924Z,14.15
2022-10-11T18:36:17.507Z,12.37
2022-10-11T18:38:44.452Z,11.38
2022-10-11T19:51:10.619Z,8.51
2022-10-11T19:56:18.028Z,7.67
2022-10-11T19:58:45.547Z,7.84
2022-10-11T20:01:13.363Z,7.66
2022-10-11T20:03:41.486Z,7.75
2022-10-11T20:06:13.442Z,8.04
2022-10-11T20:08:41.917Z,8.06
2022-10-11T20:11:11.375Z,10.23
2022-10-11T20:13:41.720Z,9.17
2022-10-11T20:16:20.927Z,7.72
2022-10-11T20:19:11.172Z,7.67
2022-10-11T20:24:47.010Z,7.73
2022-10-11T20:27:16.682Z,8.09
2022-10-11T20:29:51.899Z,8.26
2022-10-11T22:16:34.368Z,36.96
2022-10-11T22:19:06.569Z,71.57
2022-10-11T22:21:45.082Z,28.03
2022-10-11T22:24:29.423Z,109.22
2022-10-11T22:26:56.364Z,60.44
2022-10-11T22:29:30.516Z,43.40
2022-10-11T22:32:02.390Z,21.86
2022-10-11T22:34:34.439Z,36.34
2022-10-11T22:37:11.123Z,50.81
2022-10-11T22:39:39.398Z,36.17
2022-10-11T22:42:17.031Z,47.02
2022-10-11T22:44:43.683Z,76.65
2022-10-11T22:47:10.400Z,18.59
2022-10-11T22:49:37.306Z,12.70
2022-10-11T22:52:04.602Z,12.99
2022-10-11T22:54:31.465Z,13.15
2022-10-11T22:56:58.897Z,13.21
2022-10-11T22:59:25.394Z,13.58
2022-10-11T23:01:59.591Z,13.54
2022-10-11T23:04:26.694Z,13.88
2022-10-11T23:06:54.152Z,13.70
2022-10-11T23:09:21.623Z,13.89
2022-10-11T23:11:49.305Z,13.70
2022-10-11T23:14:15.913Z,14.64
2022-10-11T23:16:45.443Z,13.84
2022-10-11T23:19:12.272Z,14.33
2022-10-11T23:21:39.187Z,14.48
2022-10-11T23:24:13.265Z,14.47
2022-10-11T23:26:40.614Z,14.58
2022-10-11T23:29:07.289Z,14.01
2022-10-11T23:31:33.749Z,14.44
2022-10-11T23:34:01.309Z,14.33
2022-10-11T23:36:28.125Z,14.31
2022-10-11T23:38:54.797Z,14.86
2022-10-11T23:41:23.916Z,14.80
2022-10-11T23:43:50.789Z,14.34
2022-10-11T23:46:17.795Z,14.28
2022-10-11T23:48:44.720Z,14.53
2022-10-11T23:51:12.071Z,14.56
2022-10-11T23:53:38.732Z,14.30
2022-10-11T23:56:06.127Z,14.63
2022-10-11T23:58:32.923Z,13.97
